createdAt,value
2023-01-19T00:00:50.586Z,1.30
2023-01-19T00:03:17.979Z,1.26
2023-01-19T00:05:45.430Z,1.05
2023-01-19T00:08:15.531Z,1.16
2023-01-19T00:10:45.042Z,1.16
2023-01-19T00:13:11.924Z,1.13
2023-01-19T00:15:38.789Z,1.14
2023-01-19T00:18:05.636Z,1.35
2023-01-19T00:20:32.903Z,1.28
2023-01-19T00:23:00.186Z,1.34
2023-01-19T00:25:27.296Z,1.14
2023-01-19T00:27:54.051Z,1.11
2023-01-19T00:30:20.801Z,1.16
2023-01-19T00:32:47.566Z,1.01
2023-01-19T00:35:14.538Z,1.06
2023-01-19T00:37:41.246Z,1.19
2023-01-19T00:40:08.777Z,1.04
2023-01-19T00:42:41.711Z,1.29
2023-01-19T00:45:10.225Z,1.05
2023-01-19T00:47:37.086Z,1.10
2023-01-19T00:50:04.267Z,0.97
2023-01-19T00:52:31.145Z,0.84
2023-01-19T00:54:57.907Z,1.06
2023-01-19T00:57:24.530Z,0.94
2023-01-19T00:59:51.270Z,1.06
2023-01-19T01:02:18.113Z,1.03
2023-01-19T01:04:44.889Z,1.03
2023-01-19T01:07:11.596Z,0.87
2023-01-19T01:09:38.309Z,0.87
2023-01-19T01:12:05.866Z,0.97
2023-01-19T01:14:33.059Z,1.05
2023-01-19T01:17:00.704Z,1.12
2023-01-19T01:19:27.488Z,1.04
2023-01-19T01:21:55.589Z,0.99
2023-01-19T01:24:22.646Z,0.87
2023-01-19T01:26:49.426Z,1.09
2023-01-19T01:29:16.353Z,1.01
2023-01-19T01:31:43.065Z,0.99
2023-01-19T01:34:09.798Z,0.88
2023-01-19T01:36:36.515Z,0.91
2023-01-19T01:39:03.484Z,0.92
2023-01-19T01:41:30.727Z,1.01
2023-01-19T01:43:58.946Z,1.10
2023-01-19T01:46:28.001Z,1.16
2023-01-19T01:48:57.783Z,1.07
2023-01-19T01:51:36.760Z,1.09
2023-01-19T01:54:29.642Z,1.20
2023-01-19T01:57:02.179Z,1.19
2023-01-19T01:59:39.351Z,1.17
2023-01-19T02:02:38.249Z,1.06
2023-01-19T02:05:10.898Z,0.93
2023-01-19T02:08:07.099Z,1.04
2023-01-19T02:10:52.269Z,1.09
2023-01-19T02:13:22.634Z,1.03
2023-01-19T02:15:52.812Z,1.04
2023-01-19T02:18:22.316Z,1.00
2023-01-19T02:21:15.318Z,1.26
2023-01-19T02:23:53.520Z,1.49
2023-01-19T02:26:26.812Z,1.73
2023-01-19T02:28:58.033Z,1.74
2023-01-19T02:31:26.166Z,1.68
2023-01-19T02:33:54.171Z,1.69
2023-01-19T02:36:25.925Z,1.48
2023-01-19T02:38:56.675Z,1.85
2023-01-19T02:41:29.214Z,1.99
2023-01-19T02:43:58.610Z,2.16
2023-01-19T02:46:26.016Z,2.45
2023-01-19T02:48:52.778Z,2.54
2023-01-19T02:51:24.674Z,2.75
2023-01-19T02:54:29.776Z,2.89
2023-01-19T02:57:10.818Z,2.79
2023-01-19T02:59:50.117Z,2.89
2023-01-19T03:02:42.265Z,2.91
2023-01-19T03:05:26.903Z,2.78
2023-01-19T03:08:04.704Z,2.77
2023-01-19T03:11:05.033Z,2.73
2023-01-19T03:13:46.803Z,2.79
2023-01-19T03:16:38.108Z,2.89
2023-01-19T03:19:22.899Z,2.96
2023-01-19T03:21:55.164Z,3.02
2023-01-19T03:24:24.996Z,2.96
2023-01-19T03:27:00.396Z,2.87
2023-01-19T03:29:30.912Z,2.76
2023-01-19T03:32:01.691Z,2.76
2023-01-19T03:34:29.774Z,2.91
2023-01-19T03:37:02.712Z,2.99
2023-01-19T03:39:29.601Z,3.10
2023-01-19T03:42:03.196Z,2.93
2023-01-19T03:44:32.391Z,2.76
2023-01-19T03:47:00.289Z,2.74
2023-01-19T03:49:28.575Z,2.67
2023-01-19T03:51:57.022Z,2.84
2023-01-19T03:54:23.684Z,2.79
2023-01-19T03:56:52.497Z,2.67
2023-01-19T03:59:20.002Z,2.56
2023-01-19T04:01:47.077Z,2.55
2023-01-19T04:04:15.650Z,2.70
2023-01-19T04:06:42.957Z,2.85
2023-01-19T04:09:09.899Z,2.88
2023-01-19T04:11:36.678Z,2.76
2023-01-19T04:14:03.854Z,2.85
2023-01-19T04:16:30.603Z,2.78
2023-01-19T04:18:57.424Z,2.93
2023-01-19T04:21:24.111Z,2.71
2023-01-19T04:23:50.904Z,2.79
2023-01-19T04:26:17.953Z,2.90
2023-01-19T04:28:44.793Z,2.90
2023-01-19T04:31:11.437Z,2.93
2023-01-19T04:33:38.205Z,2.92
2023-01-19T04:36:05.250Z,3.01
2023-01-19T04:38:32.012Z,2.97
2023-01-19T04:40:58.768Z,2.91
2023-01-19T04:43:25.499Z,2.97
2023-01-19T04:45:52.499Z,3.06
2023-01-19T04:48:20.194Z,2.93
2023-01-19T04:50:47.360Z,3.03
2023-01-19T04:53:16.264Z,2.95
2023-01-19T04:55:42.930Z,2.82
2023-01-19T04:58:10.010Z,3.04
2023-01-19T05:00:37.993Z,3.13
2023-01-19T05:03:05.478Z,2.93
2023-01-19T05:05:33.144Z,3.04
2023-01-19T05:08:00.574Z,3.19
2023-01-19T05:10:27.244Z,3.14
2023-01-19T05:12:53.995Z,3.09
2023-01-19T05:15:21.216Z,3.01
2023-01-19T05:17:48.062Z,2.93
2023-01-19T05:20:16.427Z,2.84
2023-01-19T05:22:48.426Z,3.03
2023-01-19T05:25:15.432Z,3.04
2023-01-19T05:27:42.057Z,3.08
2023-01-19T05:30:09.872Z,3.08
2023-01-19T05:32:36.541Z,3.05
2023-01-19T05:35:03.494Z,3.00
2023-01-19T05:37:31.811Z,2.97
2023-01-19T05:39:58.832Z,2.98
2023-01-19T05:42:25.513Z,3.03
2023-01-19T05:44:52.857Z,3.10
2023-01-19T05:47:19.515Z,3.14
2023-01-19T05:49:46.572Z,3.24
2023-01-19T05:52:13.955Z,3.20
2023-01-19T05:54:40.844Z,3.21
2023-01-19T05:57:07.877Z,3.22
2023-01-19T05:59:34.791Z,3.15
2023-01-19T06:02:01.508Z,3.24
2023-01-19T06:04:28.374Z,3.24
2023-01-19T06:06:55.085Z,3.14
2023-01-19T06:09:21.734Z,3.16
2023-01-19T06:11:48.660Z,3.19
2023-01-19T06:14:15.449Z,3.32
2023-01-19T06:16:42.223Z,3.20
2023-01-19T06:19:09.729Z,3.27
2023-01-19T06:21:36.428Z,3.27
2023-01-19T06:24:03.633Z,3.21
2023-01-19T06:26:30.256Z,3.34
2023-01-19T06:28:57.071Z,3.31
2023-01-19T06:31:23.695Z,3.24
2023-01-19T06:33:50.368Z,3.25
2023-01-19T06:36:17.066Z,3.29
2023-01-19T06:38:44.138Z,3.23
2023-01-19T06:41:10.744Z,3.23
2023-01-19T06:43:37.503Z,3.28
2023-01-19T06:46:04.839Z,3.36
2023-01-19T06:48:31.680Z,3.27
2023-01-19T06:50:59.732Z,3.20
2023-01-19T06:53:28.335Z,3.32
2023-01-19T06:56:02.124Z,3.19
2023-01-19T06:58:31.394Z,3.36
2023-01-19T07:01:03.674Z,3.33
2023-01-19T07:03:31.034Z,3.35
2023-01-19T07:05:58.108Z,3.37
2023-01-19T07:08:24.829Z,3.22
2023-01-19T07:11:23.614Z,3.40
2023-01-19T07:13:40.543Z,3.27
2023-01-19T07:16:13.489Z,3.40
2023-01-19T07:18:41.096Z,3.40
2023-01-19T07:21:08.412Z,3.41
2023-01-19T07:23:35.493Z,3.41
2023-01-19T07:26:02.151Z,3.27
2023-01-19T07:28:31.218Z,3.50
2023-01-19T07:30:58.022Z,3.46
2023-01-19T07:33:26.214Z,3.50
2023-01-19T07:35:53.278Z,3.48
2023-01-19T07:38:20.437Z,3.47
2023-01-19T07:40:47.304Z,3.55
2023-01-19T07:43:14.567Z,3.48
2023-01-19T07:45:41.564Z,3.52
2023-01-19T07:48:08.391Z,3.47
2023-01-19T07:50:35.037Z,3.54
2023-01-19T07:53:07.332Z,3.56
2023-01-19T07:55:34.260Z,3.51
2023-01-19T07:58:01.366Z,3.36
2023-01-19T08:00:28.144Z,3.42
2023-01-19T08:03:03.546Z,3.46
2023-01-19T08:05:30.286Z,3.52
2023-01-19T08:07:58.114Z,3.45
2023-01-19T08:10:28.921Z,3.57
2023-01-19T08:12:57.017Z,3.66
2023-01-19T08:15:24.923Z,3.56
2023-01-19T08:18:02.765Z,3.57
2023-01-19T08:20:30.228Z,3.59
2023-01-19T08:23:01.192Z,3.41
2023-01-19T08:25:36.776Z,3.66
2023-01-19T08:28:06.553Z,3.68
2023-01-19T08:30:33.393Z,3.65
2023-01-19T08:33:08.221Z,3.66
2023-01-19T08:35:41.564Z,3.73
2023-01-19T08:38:10.147Z,3.75
2023-01-19T08:40:39.275Z,3.77
2023-01-19T08:43:12.008Z,3.76
2023-01-19T08:45:41.640Z,3.74
2023-01-19T08:48:08.495Z,3.59
2023-01-19T08:50:35.443Z,3.72
2023-01-19T08:53:06.514Z,3.58
2023-01-19T08:55:36.060Z,3.75
2023-01-19T08:58:04.650Z,3.62
2023-01-19T09:00:33.709Z,3.71
2023-01-19T09:03:04.766Z,3.73
2023-01-19T09:05:37.572Z,3.77
2023-01-19T09:08:11.038Z,3.85
2023-01-19T09:10:39.208Z,3.79
2023-01-19T09:13:08.572Z,3.65
2023-01-19T09:15:37.800Z,3.83
2023-01-19T09:18:07.171Z,3.80
2023-01-19T09:20:36.235Z,3.85
2023-01-19T09:23:03.494Z,3.82
2023-01-19T09:25:30.857Z,3.88
2023-01-19T09:27:59.837Z,3.75
2023-01-19T09:30:27.854Z,3.93
2023-01-19T09:32:54.625Z,4.02
2023-01-19T09:35:22.021Z,4.06
2023-01-19T09:37:48.751Z,3.97
2023-01-19T09:40:18.772Z,4.09
2023-01-19T09:42:53.541Z,4.11
2023-01-19T09:45:31.351Z,4.01
2023-01-19T09:48:00.157Z,4.14
2023-01-19T09:50:40.151Z,4.00
2023-01-19T09:53:17.230Z,4.12
2023-01-19T09:55:44.160Z,4.12
2023-01-19T09:58:19.280Z,4.14
2023-01-19T10:01:02.755Z,4.16
2023-01-19T10:03:30.242Z,4.16
2023-01-19T10:06:04.193Z,3.99
2023-01-19T10:08:36.923Z,4.19
2023-01-19T10:11:06.496Z,4.16
2023-01-19T10:13:43.869Z,4.14
2023-01-19T10:16:19.582Z,4.08
2023-01-19T10:18:48.544Z,4.02
2023-01-19T10:21:31.466Z,4.17
2023-01-19T10:24:26.173Z,4.18
2023-01-19T10:26:54.892Z,4.11
2023-01-19T10:29:38.281Z,4.18
2023-01-19T10:32:09.974Z,4.17
2023-01-19T10:34:36.950Z,4.11
2023-01-19T10:37:25.676Z,4.09
2023-01-19T10:39:55.564Z,4.12
2023-01-19T10:42:22.354Z,4.11
2023-01-19T10:44:50.400Z,4.05
2023-01-19T10:47:20.771Z,3.99
2023-01-19T10:49:48.946Z,4.17
2023-01-19T10:52:36.783Z,4.16
2023-01-19T10:55:07.774Z,4.27
2023-01-19T10:57:38.828Z,4.29
2023-01-19T11:00:07.917Z,4.27
2023-01-19T11:02:34.829Z,4.28
2023-01-19T11:05:22.882Z,4.33
2023-01-19T11:07:49.731Z,4.29
2023-01-19T11:10:16.572Z,4.40
2023-01-19T11:13:04.360Z,4.47
2023-01-19T11:15:40.564Z,4.38
2023-01-19T11:18:07.916Z,4.28
2023-01-19T11:20:54.080Z,4.17
2023-01-19T11:23:43.153Z,4.14
2023-01-19T11:26:16.350Z,4.09
2023-01-19T11:28:48.564Z,4.04
2023-01-19T11:31:15.270Z,4.04
2023-01-19T11:33:50.542Z,4.08
2023-01-19T11:36:21.477Z,3.96
2023-01-19T11:38:53.547Z,3.92
2023-01-19T11:41:23.136Z,3.87
2023-01-19T11:43:53.694Z,3.85
2023-01-19T11:46:22.559Z,3.87
2023-01-19T11:49:04.783Z,3.89
2023-01-19T11:51:56.492Z,3.94
2023-01-19T11:54:31.743Z,3.91
2023-01-19T11:57:00.308Z,3.90
2023-01-19T11:59:27.123Z,3.77
2023-01-19T12:02:00.599Z,3.77
2023-01-19T12:04:40.416Z,3.74
2023-01-19T12:07:12.431Z,3.70
2023-01-19T12:09:45.242Z,3.71
2023-01-19T12:12:16.858Z,3.72
2023-01-19T12:15:23.540Z,3.71
2023-01-19T12:17:54.218Z,3.52
2023-01-19T12:20:23.817Z,3.67
2023-01-19T12:23:09.484Z,3.61
2023-01-19T12:26:14.452Z,3.65
2023-01-19T12:28:45.566Z,3.50
2023-01-19T12:31:16.677Z,3.60
2023-01-19T12:33:43.410Z,3.58
2023-01-19T12:36:38.887Z,3.58
2023-01-19T12:39:19.232Z,3.55
2023-01-19T12:41:47.230Z,3.61
2023-01-19T12:44:16.611Z,3.62
2023-01-19T12:46:44.415Z,3.62
2023-01-19T12:49:26.921Z,3.64
2023-01-19T12:52:11.740Z,3.64
2023-01-19T12:54:42.597Z,3.66
2023-01-19T12:57:21.138Z,3.72
2023-01-19T12:59:56.535Z,3.78
2023-01-19T13:02:23.369Z,3.79
2023-01-19T13:05:19.623Z,3.84
2023-01-19T13:08:01.565Z,3.84
2023-01-19T13:10:54.468Z,3.87
2023-01-19T13:13:37.345Z,3.87
2023-01-19T13:16:19.312Z,3.91
2023-01-19T13:19:06.752Z,3.90
2023-01-19T13:21:44.647Z,3.93
2023-01-19T13:24:24.384Z,3.94
2023-01-19T13:26:51.523Z,4.00
2023-01-19T13:29:30.237Z,4.01
2023-01-19T13:32:05.050Z,3.90
2023-01-19T13:34:40.412Z,3.87
2023-01-19T13:37:17.170Z,4.08
2023-01-19T13:39:45.317Z,4.02
2023-01-19T13:42:20.920Z,3.83
2023-01-19T13:44:52.398Z,3.97
2023-01-19T13:47:25.166Z,3.96
2023-01-19T13:49:56.905Z,4.04
2023-01-19T13:52:28.753Z,4.05
2023-01-19T13:54:59.856Z,4.03
2023-01-19T13:57:34.171Z,4.12
2023-01-19T14:00:14.202Z,4.15
2023-01-19T14:03:02.011Z,4.26
2023-01-19T14:05:34.357Z,4.28
2023-01-19T14:08:13.445Z,4.28
2023-01-19T14:10:41.984Z,4.18
2023-01-19T14:13:16.597Z,4.13
2023-01-19T14:15:44.859Z,4.21
2023-01-19T14:18:31.816Z,4.21
2023-01-19T14:21:02.804Z,4.25
2023-01-19T14:23:52.229Z,4.26
2023-01-19T14:26:37.618Z,4.24
2023-01-19T14:29:10.329Z,4.23
2023-01-19T14:32:10.067Z,4.14
2023-01-19T14:34:41.564Z,4.37
2023-01-19T14:37:25.321Z,4.45
2023-01-19T14:39:56.075Z,4.45
2023-01-19T14:42:33.032Z,4.46
2023-01-19T14:45:07.010Z,4.43
2023-01-19T14:47:40.111Z,4.46
2023-01-19T14:50:19.614Z,4.40
2023-01-19T14:53:08.035Z,4.26
2023-01-19T14:55:39.694Z,4.31
2023-01-19T14:58:15.458Z,4.39
2023-01-19T15:00:43.317Z,4.41
2023-01-19T15:03:10.761Z,4.45
2023-01-19T15:05:43.571Z,4.42
2023-01-19T15:08:17.675Z,4.45
2023-01-19T15:10:45.940Z,4.36
2023-01-19T15:13:20.496Z,4.35
2023-01-19T15:15:47.749Z,4.47
2023-01-19T15:18:19.349Z,4.53
2023-01-19T15:20:46.096Z,4.54
2023-01-19T15:23:13.014Z,4.56
2023-01-19T15:25:39.880Z,4.59
2023-01-19T15:28:18.361Z,4.55
2023-01-19T15:30:45.541Z,4.41
2023-01-19T15:33:27.241Z,4.46
2023-01-19T15:35:54.119Z,4.45
2023-01-19T15:38:20.809Z,4.44
2023-01-19T15:40:51.401Z,4.25
2023-01-19T15:43:18.908Z,4.23
2023-01-19T15:45:54.656Z,4.29
2023-01-19T15:48:22.422Z,4.26
2023-01-19T15:50:49.003Z,4.25
2023-01-19T15:53:18.566Z,4.24
2023-01-19T15:55:49.406Z,4.26
2023-01-19T15:58:16.635Z,4.12
2023-01-19T16:00:43.534Z,4.20
2023-01-19T16:03:11.064Z,4.13
2023-01-19T16:05:43.436Z,4.13
2023-01-19T16:08:11.877Z,4.10
2023-01-19T16:10:39.625Z,3.93
2023-01-19T16:13:06.542Z,4.04
2023-01-19T16:15:35.184Z,4.05
2023-01-19T16:18:02.732Z,3.97
2023-01-19T16:20:29.536Z,4.03
2023-01-19T16:23:03.196Z,3.99
2023-01-19T16:25:36.499Z,3.93
2023-01-19T16:28:03.413Z,3.93
2023-01-19T16:30:30.168Z,3.78
2023-01-19T16:32:56.946Z,3.83
2023-01-19T16:35:23.680Z,3.83
2023-01-19T16:37:51.353Z,3.81
2023-01-19T16:40:20.272Z,3.70
2023-01-19T16:42:47.404Z,3.69
2023-01-19T16:45:14.107Z,3.62
2023-01-19T16:47:41.045Z,3.63
2023-01-19T16:50:11.885Z,3.61
2023-01-19T16:52:38.979Z,3.59
2023-01-19T16:55:09.514Z,3.60
2023-01-19T16:57:39.193Z,3.62
2023-01-19T17:00:09.302Z,3.61
2023-01-19T17:02:36.735Z,3.46
2023-01-19T17:05:04.363Z,3.40
2023-01-19T17:07:31.221Z,3.54
2023-01-19T17:09:57.875Z,3.51
2023-01-19T17:12:24.805Z,3.21
2023-01-19T17:14:51.406Z,3.34
2023-01-19T17:17:18.500Z,3.18
2023-01-19T17:19:45.339Z,3.07
2023-01-19T17:22:12.993Z,3.10
2023-01-19T17:24:42.382Z,2.95
2023-01-19T17:27:09.922Z,2.82
2023-01-19T17:29:36.740Z,2.81
2023-01-19T17:32:04.079Z,2.64
2023-01-19T17:34:30.764Z,2.70
2023-01-19T17:37:02.945Z,2.54
2023-01-19T17:39:30.028Z,2.52
2023-01-19T17:41:56.925Z,2.46
2023-01-19T17:44:23.882Z,2.41
2023-01-19T17:46:50.726Z,2.26
2023-01-19T17:49:17.592Z,2.50
2023-01-19T17:51:44.353Z,2.55
2023-01-19T17:54:11.362Z,2.72
2023-01-19T17:56:39.565Z,2.70
2023-01-19T17:59:08.095Z,2.67
2023-01-19T18:01:39.957Z,2.67
2023-01-19T18:04:21.945Z,2.62
2023-01-19T18:06:50.165Z,2.48
2023-01-19T18:09:16.872Z,2.65
2023-01-19T18:11:43.619Z,2.63
2023-01-19T18:14:12.021Z,2.52
2023-01-19T18:16:38.872Z,2.44
2023-01-19T18:19:05.571Z,2.35
2023-01-19T18:21:32.636Z,2.39
2023-01-19T18:24:02.142Z,2.36
2023-01-19T18:26:30.509Z,2.33
2023-01-19T18:28:57.913Z,2.31
2023-01-19T18:31:26.458Z,2.27
2023-01-19T18:33:53.374Z,2.18
2023-01-19T18:36:20.438Z,2.18
2023-01-19T18:38:47.736Z,2.10
2023-01-19T18:41:17.117Z,2.12
2023-01-19T18:43:44.079Z,2.12
2023-01-19T18:46:11.271Z,2.03
2023-01-19T18:48:39.286Z,1.96
2023-01-19T18:51:11.131Z,1.93
2023-01-19T18:53:38.538Z,1.93
2023-01-19T18:56:06.193Z,1.93
2023-01-19T18:58:34.000Z,1.96
2023-01-19T19:01:01.767Z,2.02
2023-01-19T19:03:29.186Z,2.01
2023-01-19T19:05:56.146Z,2.02
2023-01-19T19:08:23.162Z,1.97
2023-01-19T19:10:49.912Z,1.87
2023-01-19T19:13:17.761Z,2.06
2023-01-19T19:15:44.661Z,2.08
2023-01-19T19:18:13.969Z,1.93
2023-01-19T19:20:43.169Z,1.95
2023-01-19T19:23:10.581Z,1.95
2023-01-19T19:25:38.113Z,1.97
2023-01-19T19:28:05.019Z,1.88
2023-01-19T19:30:34.359Z,1.91
2023-01-19T19:33:01.294Z,1.87
2023-01-19T19:35:28.173Z,1.99
2023-01-19T19:37:57.558Z,1.92
2023-01-19T19:40:26.162Z,2.10
2023-01-19T19:42:53.313Z,2.11
2023-01-19T19:45:20.707Z,2.13
2023-01-19T19:47:47.607Z,2.10
2023-01-19T19:50:14.791Z,2.14
2023-01-19T19:52:44.126Z,2.16
2023-01-19T19:55:13.298Z,2.18
2023-01-19T19:57:41.828Z,2.25
2023-01-19T20:00:10.954Z,2.22
2023-01-19T20:02:39.451Z,2.08
2023-01-19T20:05:08.296Z,2.29
2023-01-19T20:07:35.397Z,2.27
2023-01-19T20:10:02.195Z,2.17
2023-01-19T20:12:28.984Z,2.27
2023-01-19T20:14:55.786Z,2.31
2023-01-19T20:17:23.168Z,2.21
2023-01-19T20:19:50.036Z,2.31
2023-01-19T20:22:16.747Z,2.36
2023-01-19T20:24:43.545Z,2.33
2023-01-19T20:27:10.409Z,2.38
2023-01-19T20:29:37.312Z,2.19
2023-01-19T20:32:04.110Z,2.30
2023-01-19T20:34:33.727Z,2.27
2023-01-19T20:37:01.796Z,2.24
2023-01-19T20:39:30.270Z,2.26
2023-01-19T20:41:57.340Z,2.19
2023-01-19T20:44:26.058Z,2.17
2023-01-19T20:46:53.778Z,2.12
2023-01-19T20:49:20.685Z,1.96
2023-01-19T20:51:48.342Z,2.09
2023-01-19T20:54:17.290Z,2.01
2023-01-19T20:56:44.360Z,2.07
2023-01-19T20:59:13.011Z,1.98
2023-01-19T21:01:41.643Z,1.86
2023-01-19T21:04:09.458Z,2.05
2023-01-19T21:06:38.720Z,2.10
2023-01-19T21:09:05.607Z,2.12
2023-01-19T21:11:32.502Z,2.20
2023-01-19T21:13:59.336Z,2.29
2023-01-19T21:16:28.396Z,2.27
2023-01-19T21:18:56.048Z,2.24
2023-01-19T21:21:30.787Z,2.26
2023-01-19T21:24:01.062Z,2.30
2023-01-19T21:26:31.643Z,2.33
2023-01-19T21:29:00.265Z,2.33
2023-01-19T21:31:28.281Z,2.34
2023-01-19T21:33:56.571Z,2.38
2023-01-19T21:36:24.771Z,2.44
2023-01-19T21:38:52.628Z,2.46
2023-01-19T21:41:20.240Z,2.44
2023-01-19T21:43:47.463Z,2.28
2023-01-19T21:46:21.369Z,2.49
2023-01-19T21:48:48.539Z,2.35
2023-01-19T21:51:15.744Z,2.34
2023-01-19T21:53:43.213Z,2.27
2023-01-19T21:56:11.257Z,2.26
2023-01-19T21:58:38.456Z,2.28
2023-01-19T22:01:10.849Z,2.17
2023-01-19T22:03:37.821Z,2.34
2023-01-19T22:06:08.622Z,2.29
2023-01-19T22:08:35.821Z,2.19
2023-01-19T22:11:07.942Z,2.44
2023-01-19T22:13:36.218Z,2.45
2023-01-19T22:16:04.447Z,2.39
2023-01-19T22:18:31.338Z,2.09
2023-01-19T22:21:07.600Z,2.49
2023-01-19T22:23:34.627Z,2.28
2023-01-19T22:26:01.633Z,2.43
2023-01-19T22:28:28.423Z,2.39
2023-01-19T22:30:55.205Z,2.24
2023-01-19T22:33:22.025Z,2.32
2023-01-19T22:35:48.804Z,2.23
2023-01-19T22:38:15.587Z,2.26
2023-01-19T22:40:42.329Z,2.31
2023-01-19T22:43:09.085Z,2.36
2023-01-19T22:45:40.661Z,2.32
2023-01-19T22:48:07.381Z,2.43
2023-01-19T22:50:35.370Z,2.37
2023-01-19T22:53:02.140Z,2.45
2023-01-19T22:55:29.862Z,2.28
2023-01-19T22:57:56.672Z,2.28
2023-01-19T23:00:23.830Z,2.20
2023-01-19T23:02:50.540Z,2.38
2023-01-19T23:05:17.535Z,2.30
2023-01-19T23:07:44.277Z,2.23
2023-01-19T23:10:11.484Z,2.27
2023-01-19T23:12:38.339Z,2.20
2023-01-19T23:15:05.645Z,2.29
2023-01-19T23:17:32.486Z,2.31
2023-01-19T23:19:59.136Z,2.32
2023-01-19T23:22:25.887Z,2.33
2023-01-19T23:24:52.550Z,2.35
2023-01-19T23:27:19.400Z,2.32
2023-01-19T23:29:46.146Z,2.30
2023-01-19T23:32:12.899Z,2.30
2023-01-19T23:34:39.715Z,2.40
2023-01-19T23:37:06.457Z,2.41
2023-01-19T23:39:33.198Z,2.30
2023-01-19T23:41:59.982Z,2.23
2023-01-19T23:44:26.686Z,2.34
2023-01-19T23:46:53.390Z,2.37
2023-01-19T23:49:20.122Z,2.13
2023-01-19T23:51:46.872Z,2.35
2023-01-19T23:54:13.537Z,2.41
2023-01-19T23:56:42.728Z,2.39
2023-01-19T23:59:15.302Z,2.42
